createdAt,value
2023-04-11T00:00:38.189Z,95989.16
2023-04-11T00:03:07.331Z,96000.75
2023-04-11T00:05:34.435Z,95977.09
2023-04-11T00:08:01.638Z,95991.78
2023-04-11T00:10:28.740Z,95981.13
2023-04-11T00:12:56.898Z,95969.97
2023-04-11T00:15:27.090Z,95958.72
2023-04-11T00:17:55.054Z,95938.63
2023-04-11T00:20:22.241Z,95943.44
2023-04-11T00:22:49.105Z,95931.38
2023-04-11T00:25:15.886Z,95926.25
2023-04-11T00:27:42.659Z,95935.06
2023-04-11T00:30:09.693Z,95982.50
2023-04-11T00:32:36.746Z,95963.06
2023-04-11T00:35:03.906Z,95997.97
2023-04-11T00:37:36.369Z,96004.13
2023-04-11T00:40:24.377Z,95989.63
2023-04-11T00:42:51.124Z,96006.94
2023-04-11T00:45:17.849Z,96008.13
2023-04-11T00:47:44.793Z,96007.50
2023-04-11T00:50:14.236Z,95984.16
2023-04-11T00:52:41.998Z,95967.91
2023-04-11T00:55:10.589Z,95949.19
2023-04-11T00:57:37.922Z,95988.28
2023-04-11T01:00:05.228Z,95970.41
2023-04-11T01:02:32.202Z,95980.44
2023-04-11T01:05:00.810Z,95939.19
2023-04-11T01:07:28.972Z,95930.22
2023-04-11T01:09:56.200Z,95915.22
2023-04-11T01:12:23.427Z,95934.28
2023-04-11T01:14:51.029Z,95946.56
2023-04-11T01:17:17.747Z,95920.84
2023-04-11T01:19:44.471Z,95908.34
2023-04-11T01:22:14.754Z,95911.94
2023-04-11T01:24:41.453Z,95961.66
2023-04-11T01:27:08.393Z,95940.22
2023-04-11T01:29:35.164Z,95929.84
2023-04-11T01:32:01.839Z,95942.53
2023-04-11T01:34:31.031Z,95939.00
2023-04-11T01:36:57.971Z,95910.91
2023-04-11T01:39:24.873Z,95926.69
2023-04-11T01:41:53.122Z,95903.16
2023-04-11T01:44:20.793Z,95892.50
2023-04-11T01:46:47.518Z,95914.44
2023-04-11T01:49:15.977Z,95900.22
2023-04-11T01:51:42.850Z,95903.16
2023-04-11T01:54:09.472Z,95893.91
2023-04-11T01:56:37.821Z,95887.31
2023-04-11T01:59:04.458Z,95915.72
2023-04-11T02:01:32.045Z,95907.38
2023-04-11T02:03:58.858Z,95872.63
2023-04-11T02:06:27.470Z,95901.94
2023-04-11T02:08:54.601Z,95879.13
2023-04-11T02:11:21.647Z,95883.56
2023-04-11T02:13:49.197Z,95859.00
2023-04-11T02:16:18.037Z,95892.38
2023-04-11T02:18:46.303Z,95888.50
2023-04-11T02:21:15.916Z,95893.47
2023-04-11T02:23:42.636Z,95883.09
2023-04-11T02:26:09.360Z,95917.25
2023-04-11T02:28:36.645Z,95916.03
2023-04-11T02:31:03.807Z,95915.41
2023-04-11T02:33:30.736Z,95911.25
2023-04-11T02:35:57.519Z,95883.28
2023-04-11T02:38:24.331Z,95880.03
2023-04-11T02:40:51.119Z,95877.13
2023-04-11T02:43:17.782Z,95885.47
2023-04-11T02:45:44.515Z,95888.72
2023-04-11T02:48:12.632Z,95871.28
2023-04-11T02:50:43.591Z,95868.03
2023-04-11T02:53:10.554Z,95874.06
2023-04-11T02:55:43.432Z,95872.66
2023-04-11T02:58:10.673Z,95836.25
2023-04-11T03:00:38.137Z,95841.78
2023-04-11T03:03:07.936Z,95853.06
2023-04-11T03:05:40.232Z,95858.03
2023-04-11T03:08:09.036Z,95856.47
2023-04-11T03:10:38.153Z,95834.84
2023-04-11T03:13:05.730Z,95780.81
2023-04-11T03:15:32.617Z,95814.16
2023-04-11T03:18:04.189Z,95845.22
2023-04-11T03:20:30.962Z,95815.56
2023-04-11T03:22:57.583Z,95810.63
2023-04-11T03:25:25.143Z,95802.28
2023-04-11T03:27:52.516Z,95805.22
2023-04-11T03:30:19.227Z,95793.31
2023-04-11T03:32:47.880Z,95777.88
2023-04-11T03:35:14.946Z,95776.50
2023-04-11T03:37:45.688Z,95789.59
2023-04-11T03:40:15.222Z,95775.88
2023-04-11T03:42:46.810Z,95767.72
2023-04-11T03:45:17.982Z,95792.28
2023-04-11T03:47:45.743Z,95765.22
2023-04-11T03:50:14.558Z,95749.34
2023-04-11T03:52:47.156Z,95772.94
2023-04-11T03:55:15.742Z,95771.13
2023-04-11T03:57:43.175Z,95726.81
2023-04-11T04:00:10.828Z,95757.50
2023-04-11T04:02:52.931Z,95730.22
2023-04-11T04:05:20.254Z,95715.25
2023-04-11T04:07:46.836Z,95753.19
2023-04-11T04:10:25.677Z,95719.44
2023-04-11T04:12:54.065Z,95742.72
2023-04-11T04:15:23.836Z,95704.75
2023-04-11T04:17:51.773Z,95743.34
2023-04-11T04:20:44.900Z,95738.41
2023-04-11T04:23:14.258Z,95728.50
2023-04-11T04:26:13.200Z,95695.34
2023-04-11T04:28:46.534Z,95720.03
2023-04-11T04:31:22.380Z,95709.53
2023-04-11T04:33:50.609Z,95707.84
2023-04-11T04:36:21.903Z,95718.66
2023-04-11T04:38:50.477Z,95686.25
2023-04-11T04:41:17.302Z,95692.56
2023-04-11T04:43:58.104Z,95724.81
2023-04-11T04:46:42.394Z,95715.88
2023-04-11T04:49:09.315Z,95717.88
2023-04-11T04:51:38.603Z,95711.22
2023-04-11T04:54:05.885Z,95740.53
2023-04-11T04:56:32.632Z,95745.47
2023-04-11T04:58:59.454Z,95717.41
2023-04-11T05:01:28.202Z,95740.53
2023-04-11T05:04:01.538Z,95761.53
2023-04-11T05:06:43.265Z,95733.78
2023-04-11T05:09:10.105Z,95710.94
2023-04-11T05:11:36.962Z,95735.47
2023-04-11T05:14:03.719Z,95759.53
2023-04-11T05:16:30.545Z,95747.00
2023-04-11T05:18:57.399Z,95683.16
2023-04-11T05:21:24.231Z,95724.50
2023-04-11T05:23:52.376Z,95714.63
2023-04-11T05:26:19.250Z,95711.69
2023-04-11T05:28:46.030Z,95725.16
2023-04-11T05:31:17.110Z,95728.81
2023-04-11T05:33:44.876Z,95731.44
2023-04-11T05:36:14.147Z,95729.31
2023-04-11T05:38:41.622Z,95697.03
2023-04-11T05:41:08.957Z,95727.91
2023-04-11T05:43:36.006Z,95746.41
2023-04-11T05:46:03.963Z,95716.34
2023-04-11T05:48:31.273Z,95740.25
2023-04-11T05:50:58.546Z,95708.47
2023-04-11T05:53:25.242Z,95718.00
2023-04-11T05:55:52.134Z,95742.72
2023-04-11T05:58:18.913Z,95755.53
2023-04-11T06:00:46.073Z,95734.69
2023-04-11T06:03:13.345Z,95762.00
2023-04-11T06:05:40.614Z,95748.41
2023-04-11T06:08:08.294Z,95762.56
2023-04-11T06:10:35.435Z,95778.03
2023-04-11T06:13:02.090Z,95776.78
2023-04-11T06:15:29.453Z,95794.22
2023-04-11T06:17:56.212Z,95772.44
2023-04-11T06:20:23.728Z,95809.03
2023-04-11T06:22:53.802Z,95801.94
2023-04-11T06:25:21.551Z,95774.59
2023-04-11T06:27:48.562Z,95818.00
2023-04-11T06:30:15.598Z,95827.41
2023-04-11T06:32:42.413Z,95843.63
2023-04-11T06:35:09.608Z,95822.78
2023-04-11T06:37:36.308Z,95796.97
2023-04-11T06:40:05.597Z,95803.94
2023-04-11T06:42:32.666Z,95802.84
2023-04-11T06:44:59.437Z,95823.53
2023-04-11T06:47:26.167Z,95843.44
2023-04-11T06:49:52.870Z,95813.81
2023-04-11T06:52:19.535Z,95852.69
2023-04-11T06:54:48.014Z,95821.81
2023-04-11T06:57:14.679Z,95827.56
2023-04-11T06:59:41.469Z,95795.94
2023-04-11T07:02:08.333Z,95788.09
2023-04-11T07:04:35.133Z,95849.22
2023-04-11T07:07:02.036Z,95821.13
2023-04-11T07:09:28.830Z,95850.59
2023-04-11T07:11:56.255Z,95836.56
2023-04-11T07:14:22.913Z,95861.88
2023-04-11T07:16:49.598Z,95859.22
2023-04-11T07:19:16.348Z,95850.72
2023-04-11T07:21:42.998Z,95848.84
2023-04-11T07:24:11.849Z,95857.66
2023-04-11T07:26:38.718Z,95860.66
2023-04-11T07:29:07.231Z,95860.47
2023-04-11T07:31:36.336Z,95892.00
2023-04-11T07:34:03.067Z,95843.94
2023-04-11T07:36:29.704Z,95848.91
2023-04-11T07:38:57.649Z,95856.94
2023-04-11T07:41:24.355Z,95890.59
2023-04-11T07:43:51.253Z,95829.28
2023-04-11T07:46:17.968Z,95883.03
2023-04-11T07:48:44.648Z,95881.94
2023-04-11T07:51:11.397Z,95874.84
2023-04-11T07:53:38.100Z,95854.78
2023-04-11T07:56:05.093Z,95888.75
2023-04-11T07:58:32.084Z,95879.00
2023-04-11T08:00:59.203Z,95852.94
2023-04-11T08:03:27.073Z,95897.84
2023-04-11T08:05:54.274Z,95890.75
2023-04-11T08:08:21.046Z,95886.75
2023-04-11T08:10:48.579Z,95888.44
2023-04-11T08:13:16.312Z,95895.84
2023-04-11T08:15:43.131Z,95801.50
2023-04-11T08:18:12.168Z,95862.50
2023-04-11T08:20:40.737Z,95920.09
2023-04-11T08:23:08.824Z,95905.09
2023-04-11T08:25:36.643Z,95912.97
2023-04-11T08:28:05.117Z,95883.50
2023-04-11T08:30:32.333Z,95902.94
2023-04-11T08:32:59.336Z,95913.91
2023-04-11T08:35:26.167Z,95911.69
2023-04-11T08:37:52.889Z,95906.75
2023-04-11T08:40:19.678Z,95868.75
2023-04-11T08:42:46.982Z,95904.38
2023-04-11T08:45:13.692Z,95872.63
2023-04-11T08:47:41.926Z,95875.06
2023-04-11T08:50:09.978Z,95891.47
2023-04-11T08:52:39.575Z,95900.81
2023-04-11T08:55:06.520Z,95891.56
2023-04-11T08:57:33.297Z,95892.88
2023-04-11T09:00:14.174Z,95867.59
2023-04-11T09:02:59.439Z,95908.38
2023-04-11T09:05:40.623Z,95905.53
2023-04-11T09:08:12.669Z,95890.47
2023-04-11T09:10:40.971Z,95905.63
2023-04-11T09:13:20.581Z,95907.31
2023-04-11T09:15:47.811Z,95911.81
2023-04-11T09:18:34.267Z,95910.16
2023-04-11T09:21:03.703Z,95881.56
2023-04-11T09:23:30.479Z,95891.97
2023-04-11T09:25:57.418Z,95898.72
2023-04-11T09:28:25.671Z,95918.16
2023-04-11T09:30:54.897Z,95919.88
2023-04-11T09:33:28.318Z,95879.81
2023-04-11T09:35:56.822Z,95916.16
2023-04-11T09:38:35.093Z,95921.56
2023-04-11T09:41:03.651Z,95896.44
2023-04-11T09:43:55.640Z,95898.81
2023-04-11T09:46:23.086Z,95908.72
2023-04-11T09:48:52.169Z,95914.53
2023-04-11T09:51:31.838Z,95890.91
2023-04-11T09:54:03.593Z,95899.66
2023-04-11T09:56:31.376Z,95905.91
2023-04-11T09:59:00.158Z,95883.06
2023-04-11T10:01:27.434Z,95877.69
2023-04-11T10:03:55.767Z,95900.22
2023-04-11T10:06:34.329Z,95892.78
2023-04-11T10:09:10.988Z,95905.38
2023-04-11T10:11:41.399Z,95896.94
2023-04-11T10:14:08.206Z,95862.31
2023-04-11T10:16:35.091Z,95903.97
2023-04-11T10:19:01.954Z,95897.78
2023-04-11T10:21:34.725Z,95902.00
2023-04-11T10:24:23.333Z,95871.25
2023-04-11T10:26:55.474Z,95874.56
2023-04-11T10:29:28.186Z,95894.25
2023-04-11T10:32:13.177Z,95896.38
2023-04-11T10:35:00.575Z,95903.50
2023-04-11T10:37:30.443Z,95898.97
2023-04-11T10:40:12.301Z,95899.69
2023-04-11T10:42:43.512Z,95908.75
2023-04-11T10:45:19.339Z,95901.81
2023-04-11T10:47:51.970Z,95905.41
2023-04-11T10:50:28.431Z,95903.69
2023-04-11T10:52:59.647Z,95887.72
2023-04-11T10:55:28.887Z,95876.59
2023-04-11T10:58:22.325Z,95912.34
2023-04-11T11:00:52.336Z,95898.16
2023-04-11T11:03:30.769Z,95844.31
2023-04-11T11:06:03.426Z,95879.13
2023-04-11T11:08:35.689Z,95849.53
2023-04-11T11:11:06.937Z,95879.13
2023-04-11T11:13:43.037Z,95909.13
2023-04-11T11:16:16.725Z,95860.66
2023-04-11T11:18:49.800Z,95918.63
2023-04-11T11:21:27.808Z,95919.91
2023-04-11T11:24:01.028Z,95883.41
2023-04-11T11:26:44.096Z,95857.25
2023-04-11T11:29:11.358Z,95883.81
2023-04-11T11:31:45.473Z,95938.16
2023-04-11T11:34:23.586Z,95903.50
2023-04-11T11:36:52.671Z,95907.59
2023-04-11T11:39:21.149Z,95902.31
2023-04-11T11:41:49.652Z,95935.34
2023-04-11T11:44:24.131Z,95899.03
2023-04-11T11:47:18.098Z,95930.28
2023-04-11T11:49:52.282Z,95938.53
2023-04-11T11:52:44.745Z,95915.72
2023-04-11T11:55:22.395Z,95930.22
2023-04-11T11:57:50.191Z,95897.19
2023-04-11T12:00:25.072Z,95892.75
2023-04-11T12:02:53.335Z,95924.25
2023-04-11T12:05:20.612Z,95915.84
2023-04-11T12:07:47.251Z,95865.91
2023-04-11T12:10:16.705Z,95964.03
2023-04-11T12:12:53.222Z,95953.41
2023-04-11T12:15:23.182Z,95948.34
2023-04-11T12:17:52.032Z,95939.72
2023-04-11T12:20:26.799Z,95948.69
2023-04-11T12:22:54.809Z,95927.53
2023-04-11T12:25:22.225Z,95893.56
2023-04-11T12:27:48.945Z,95917.09
2023-04-11T12:30:15.830Z,95912.75
2023-04-11T12:32:43.377Z,95993.00
2023-04-11T12:35:11.005Z,95982.66
2023-04-11T12:37:38.520Z,95961.44
2023-04-11T12:40:12.918Z,95997.66
2023-04-11T12:42:49.523Z,95980.78
2023-04-11T12:45:20.358Z,95998.38
2023-04-11T12:47:47.997Z,96030.88
2023-04-11T12:50:14.803Z,96015.38
2023-04-11T12:52:41.852Z,96042.06
2023-04-11T12:55:11.207Z,96031.53
2023-04-11T12:57:37.911Z,96025.06
2023-04-11T13:00:08.920Z,96026.63
2023-04-11T13:02:42.956Z,96038.28
2023-04-11T13:05:13.870Z,96026.69
2023-04-11T13:07:41.178Z,96044.66
2023-04-11T13:10:08.382Z,95989.47
2023-04-11T13:12:41.156Z,96046.13
2023-04-11T13:15:11.749Z,96050.22
2023-04-11T13:17:38.999Z,96017.91
2023-04-11T13:20:10.721Z,96043.66
2023-04-11T13:22:42.288Z,96033.28
2023-04-11T13:25:12.426Z,96042.53
2023-04-11T13:27:40.245Z,96041.06
2023-04-11T13:30:08.260Z,96028.41
2023-04-11T13:32:34.988Z,96052.06
2023-04-11T13:35:02.178Z,96013.13
2023-04-11T13:37:29.102Z,96029.19
2023-04-11T13:39:55.785Z,96015.69
2023-04-11T13:42:22.629Z,96039.16
2023-04-11T13:44:49.377Z,95988.38
2023-04-11T13:47:16.203Z,95998.16
2023-04-11T13:49:42.860Z,96007.72
2023-04-11T13:52:09.500Z,96037.16
2023-04-11T13:54:37.771Z,95995.38
2023-04-11T13:57:07.606Z,96016.63
2023-04-11T13:59:34.568Z,95985.59
2023-04-11T14:02:06.940Z,96030.69
2023-04-11T14:04:34.327Z,95954.88
2023-04-11T14:07:01.121Z,96032.00
2023-04-11T14:09:27.911Z,96016.84
2023-04-11T14:11:54.758Z,96037.00
2023-04-11T14:14:21.813Z,96048.28
2023-04-11T14:16:48.554Z,96026.56
2023-04-11T14:19:15.662Z,96029.44
2023-04-11T14:21:42.475Z,96033.53
2023-04-11T14:24:09.542Z,96043.50
2023-04-11T14:26:36.281Z,96034.41
2023-04-11T14:29:03.032Z,96099.69
2023-04-11T14:31:30.415Z,96120.44
2023-04-11T14:33:57.528Z,96123.47
2023-04-11T14:36:24.483Z,96095.59
2023-04-11T14:38:51.138Z,96094.50
2023-04-11T14:41:19.339Z,96103.22
2023-04-11T14:43:46.195Z,96063.03
2023-04-11T14:46:12.976Z,96057.81
2023-04-11T14:48:39.692Z,96076.81
2023-04-11T14:51:07.130Z,96058.53
2023-04-11T14:53:33.812Z,96043.91
2023-04-11T14:56:04.315Z,96065.38
2023-04-11T14:58:31.196Z,96091.63
2023-04-11T15:00:58.297Z,96069.78
2023-04-11T15:03:25.322Z,96066.03
2023-04-11T15:05:52.256Z,96046.22
2023-04-11T15:08:19.021Z,96045.91
2023-04-11T15:10:45.725Z,96048.91
2023-04-11T15:13:12.941Z,96076.91
2023-04-11T15:15:39.653Z,96061.34
2023-04-11T15:18:27.840Z,96081.28
2023-04-11T15:20:56.667Z,96068.63
2023-04-11T15:23:23.675Z,96035.03
2023-04-11T15:26:01.525Z,96083.59
2023-04-11T15:28:39.442Z,96077.47
2023-04-11T15:31:08.171Z,96046.59
2023-04-11T15:33:35.163Z,96074.09
2023-04-11T15:36:02.336Z,96079.06
2023-04-11T15:38:29.367Z,96071.47
2023-04-11T15:41:00.033Z,96047.72
2023-04-11T15:43:27.122Z,96029.19
2023-04-11T15:45:54.489Z,96043.41
2023-04-11T15:48:21.569Z,96014.19
2023-04-11T15:50:48.295Z,96034.44
2023-04-11T15:53:14.964Z,95975.31
2023-04-11T15:55:44.325Z,96040.97
2023-04-11T15:58:11.353Z,96024.03
2023-04-11T16:00:39.186Z,96029.53
2023-04-11T16:03:10.784Z,96034.25
2023-04-11T16:05:40.635Z,96011.47
2023-04-11T16:08:07.883Z,96033.72
2023-04-11T16:10:34.630Z,96046.22
2023-04-11T16:13:02.474Z,96022.78
2023-04-11T16:15:29.081Z,96013.44
2023-04-11T16:17:55.867Z,96049.88
2023-04-11T16:20:22.951Z,96012.81
2023-04-11T16:22:49.648Z,96030.97
2023-04-11T16:25:19.429Z,96047.53
2023-04-11T16:27:48.889Z,95985.88
2023-04-11T16:30:16.887Z,96048.50
2023-04-11T16:32:44.126Z,95995.97
2023-04-11T16:35:11.223Z,96020.63
2023-04-11T16:37:37.917Z,96024.16
2023-04-11T16:40:09.146Z,96013.94
2023-04-11T16:42:35.843Z,96009.53
2023-04-11T16:45:02.691Z,96039.97
2023-04-11T16:47:29.427Z,96049.16
2023-04-11T16:49:56.313Z,96048.22
2023-04-11T16:52:23.005Z,96005.78
2023-04-11T16:54:51.070Z,96024.09
2023-04-11T16:57:18.500Z,96031.69
2023-04-11T16:59:46.046Z,96048.28
2023-04-11T17:02:12.787Z,96024.09
2023-04-11T17:04:39.529Z,96038.19
2023-04-11T17:07:06.595Z,96029.06
2023-04-11T17:09:33.365Z,96049.97
2023-04-11T17:12:02.176Z,96009.94
2023-04-11T17:14:29.270Z,96035.41
2023-04-11T17:16:55.957Z,96049.78
2023-04-11T17:19:23.804Z,95993.25
2023-04-11T17:21:51.245Z,96005.59
2023-04-11T17:24:17.905Z,96040.53
2023-04-11T17:26:45.062Z,96019.69
2023-04-11T17:29:14.549Z,96036.25
2023-04-11T17:31:41.199Z,96033.78
2023-04-11T17:34:07.908Z,96050.34
2023-04-11T17:36:42.354Z,96013.25
2023-04-11T17:39:17.082Z,96062.88
2023-04-11T17:41:45.538Z,95985.91
2023-04-11T17:44:12.717Z,96071.09
2023-04-11T17:46:39.695Z,96055.16
2023-04-11T17:49:06.443Z,96057.34
2023-04-11T17:51:33.237Z,96031.00
2023-04-11T17:54:00.077Z,96027.81
2023-04-11T17:56:27.058Z,96046.63
2023-04-11T17:58:53.752Z,96059.34
2023-04-11T18:01:20.841Z,96048.03
2023-04-11T18:03:47.705Z,96061.81
2023-04-11T18:06:14.585Z,96030.06
2023-04-11T18:11:11.120Z,96057.28
2023-04-11T18:13:37.818Z,96021.88
2023-04-11T18:16:04.608Z,96054.63
2023-04-11T18:18:31.359Z,96028.78
2023-04-11T18:21:05.811Z,96037.13
2023-04-11T18:23:34.156Z,96009.56
2023-04-11T18:26:00.982Z,96065.34
2023-04-11T18:28:27.758Z,96053.59
2023-04-11T18:30:54.452Z,96066.41
2023-04-11T18:33:21.246Z,96044.59
2023-04-11T18:35:48.122Z,96051.53
2023-04-11T18:38:14.897Z,96062.88
2023-04-11T18:40:41.652Z,96078.19
2023-04-11T18:43:08.372Z,96034.25
2023-04-11T18:45:35.557Z,96074.38
2023-04-11T18:48:02.519Z,96052.56
2023-04-11T18:50:30.780Z,96068.22
2023-04-11T18:53:02.173Z,96081.22
2023-04-11T18:55:31.818Z,96053.41
2023-04-11T18:58:00.460Z,96062.28
2023-04-11T19:00:29.540Z,96042.44
2023-04-11T19:02:56.482Z,96015.38
2023-04-11T19:05:25.565Z,96034.19
2023-04-11T19:07:52.810Z,96048.53
2023-04-11T19:10:20.226Z,96058.97
2023-04-11T19:12:47.006Z,96036.22
2023-04-11T19:15:14.065Z,96057.59
2023-04-11T19:17:41.224Z,96014.81
2023-04-11T19:20:12.606Z,96061.50
2023-04-11T19:22:43.705Z,96036.41
2023-04-11T19:25:12.020Z,96096.06
2023-04-11T19:27:40.327Z,96113.84
2023-04-11T19:30:28.686Z,96081.88
2023-04-11T19:32:56.325Z,96067.47
2023-04-11T19:35:24.412Z,95977.31
2023-04-11T19:37:51.461Z,96108.81
2023-04-11T19:40:18.772Z,96110.47
2023-04-11T19:42:45.874Z,96102.25
2023-04-11T19:45:12.645Z,96068.00
2023-04-11T19:47:40.725Z,96071.94
2023-04-11T19:50:13.503Z,96097.56
2023-04-11T19:52:41.603Z,96056.75
2023-04-11T19:55:09.449Z,96052.50
2023-04-11T19:57:38.350Z,96074.69
2023-04-11T20:00:17.248Z,96054.63
2023-04-11T20:02:45.915Z,96036.50
2023-04-11T20:05:18.005Z,96070.13
2023-04-11T20:07:46.197Z,96055.69
2023-04-11T20:10:14.417Z,96033.78
2023-04-11T20:12:41.370Z,96036.91
2023-04-11T20:15:09.295Z,96041.19
2023-04-11T20:17:36.080Z,96067.72
2023-04-11T20:20:06.049Z,96023.75
2023-04-11T20:22:33.187Z,96000.53
2023-04-11T20:24:59.946Z,96061.09
2023-04-11T20:27:28.174Z,96018.16
2023-04-11T20:29:56.859Z,95997.63
2023-04-11T20:32:23.797Z,95999.09
2023-04-11T20:34:50.585Z,96023.84
2023-04-11T20:37:18.974Z,96006.16
2023-04-11T20:39:47.686Z,96032.03
2023-04-11T20:42:15.371Z,95958.34
2023-04-11T20:44:42.700Z,95988.06
2023-04-11T20:47:09.428Z,96042.16
2023-04-11T20:49:36.190Z,96001.31
2023-04-11T20:52:02.959Z,96019.88
2023-04-11T20:54:30.121Z,96032.31
2023-04-11T20:56:56.815Z,96015.94
2023-04-11T20:59:23.474Z,95993.50
2023-04-11T21:01:50.216Z,96031.38
2023-04-11T21:04:18.700Z,96010.88
2023-04-11T21:06:46.071Z,96017.56
2023-04-11T21:09:12.916Z,95987.72
2023-04-11T21:11:39.538Z,96029.63
2023-04-11T21:14:06.691Z,96059.03
2023-04-11T21:16:33.731Z,96036.75
2023-04-11T21:19:00.452Z,95998.31
2023-04-11T21:21:27.084Z,96055.16
2023-04-11T21:23:54.065Z,96040.13
2023-04-11T21:26:23.681Z,96047.81
2023-04-11T21:28:50.588Z,96009.88
2023-04-11T21:31:17.383Z,96027.94
2023-04-11T21:33:46.180Z,96029.19
2023-04-11T21:36:12.902Z,95984.41
2023-04-11T21:38:39.600Z,96045.66
2023-04-11T21:41:06.636Z,95856.31
2023-04-11T21:43:33.245Z,95943.50
2023-04-11T21:45:59.899Z,96028.56
2023-04-11T21:48:26.542Z,96005.53
2023-04-11T21:50:53.317Z,96028.75
2023-04-11T21:53:20.020Z,95995.81
2023-04-11T21:55:47.062Z,95999.66
2023-04-11T21:58:26.261Z,96023.91
2023-04-11T22:00:55.828Z,96013.19
2023-04-11T22:03:22.994Z,95956.22
2023-04-11T22:05:50.769Z,96008.81
2023-04-11T22:08:20.384Z,96009.63
2023-04-11T22:10:48.337Z,95955.78
2023-04-11T22:13:17.385Z,96014.94
2023-04-11T22:15:45.472Z,96018.63
2023-04-11T22:18:12.754Z,96013.59
2023-04-11T22:20:43.869Z,96010.00
2023-04-11T22:23:13.183Z,96002.25
2023-04-11T22:25:44.137Z,95970.44
2023-04-11T22:28:14.005Z,95992.72
2023-04-11T22:30:46.482Z,95978.06
2023-04-11T22:33:16.919Z,95987.66
2023-04-11T22:35:49.426Z,95990.25
2023-04-11T22:38:16.912Z,95945.28
2023-04-11T22:40:43.784Z,95972.66
2023-04-11T22:43:10.711Z,95901.63
2023-04-11T22:45:37.680Z,95933.41
2023-04-11T22:48:06.091Z,95983.97
2023-04-11T22:50:38.051Z,95991.97
2023-04-11T22:53:05.585Z,95955.50
2023-04-11T22:55:35.538Z,95987.63
2023-04-11T22:58:03.080Z,95987.53
2023-04-11T23:00:30.169Z,95954.19
2023-04-11T23:02:59.624Z,95952.97
2023-04-11T23:05:26.673Z,95950.22
2023-04-11T23:07:53.487Z,95942.94
2023-04-11T23:10:21.411Z,95955.19
2023-04-11T23:12:49.410Z,95917.91
2023-04-11T23:15:17.413Z,95912.25
2023-04-11T23:17:44.970Z,95949.28
2023-04-11T23:20:12.752Z,95921.50
2023-04-11T23:22:42.263Z,95940.44
2023-04-11T23:25:14.117Z,95935.25
2023-04-11T23:27:44.684Z,95938.88
2023-04-11T23:30:12.689Z,95934.34
2023-04-11T23:32:39.996Z,95854.69
2023-04-11T23:35:07.965Z,95928.25
2023-04-11T23:37:35.562Z,95898.81
2023-04-11T23:40:10.859Z,95877.34
2023-04-11T23:42:38.719Z,95906.72
2023-04-11T23:45:06.711Z,95891.47
2023-04-11T23:47:34.267Z,95911.19
2023-04-11T23:50:02.805Z,95888.41
2023-04-11T23:52:30.512Z,95885.22
2023-04-11T23:54:58.423Z,95858.38
2023-04-11T23:57:25.231Z,95896.06
2023-04-11T23:59:52.428Z,95861.50
